Pine Ridge, Florida
Current Conditions -  °F | °C
As of 10:35 AM on Monday 24 Nov 2014 (Local Time) from KCGC Reporting Station
Broken Clouds Broken Clouds  
Wind Chill: 79°   Ceiling: 1600
Heat Index: 82°   Visibility: 10mi
Dew Point: 72°   Wind: 7mph
Humidity: 78%   Direction: 210°SSW
Pressure: 29.97"   Gusts: NA
Location:  28.9342°N, 82.4936°W
Report Text: KCGC 241535Z AUTO 21006KT 10SM BKN016 26/22 A2997 RMK AO2
Loading
Personal Weather Stations






























Interactive Weather Map New forecast layout! Learn more

10-Day Weather Forecast

Advertisements
Track Severe Weather on mobile